Alma, CO (80420)

6:07 PM MDT on October 01, 2014 (GMT -0600)
Valley of the Sun | Change Station
CLOSE
Current Station
Personal Weather Station
Location: Fairplay, CO
Elevation: 11000 ft
Nearby Weather Stations
Active Advisory: Winter Weather Advisory

Elev 11000 ft 39.24 °N, 106.11 °W | Updated 6 minutes ago

Overcast
Overcast
34.0 °F
Feels Like 34 °F
N
1.0
Wind Variable Wind from NW
Gusts 1.0 mph

Today
High -- | Low -- °F
--% Chance of Precip.
Yesterday
High -- | Low -- °F
Precip. -- in
7:00 AM 6:46 PM
First Quarter, 52% visible
Pressure 30.14 in
Visibility 1.0 miles
Clouds Mostly Cloudy 700 ft
Overcast 1400 ft
Windchill 34 °F
Dew Point 22 °F
Humidity 62%
Rainfall 0.05 in
Snow Depth 0 in , 188 in , 1 in
UV 0 out of 12
Pollen 3.40 out of 12
Air Quality Not available.
Flu Activity Not available.
METAR KCCU 302355Z AUTO 25012G18KT 1SM -VCTSSN BKN007 OVC014 01/M01 A3014 RMK AO2 LTG DSNT NW

More Conditions Fewer Conditions

Pressure 30.14 in
Visibility 1.0 miles
Clouds Mostly Cloudy 700 ft
Overcast 1400 ft
Windchill 34 °F
Dew Point 22 °F
Humidity 62%
Rainfall 0.05 in
Snow Depth 0 in , 188 in , 1 in
UV 0 out of 12
Pollen 3.40 out of 12
Air Quality Not available.
Flu Activity Not available.
METAR KCCU 302355Z AUTO 25012G18KT 1SM -VCTSSN BKN007 OVC014 01/M01 A3014 RMK AO2 LTG DSNT NW

More Conditions Fewer Conditions

10-Day Weather Forecast

Almanac

Astronomy

Oct. 01, 2014 Rise Set
Actual Time 7:00 AM MDT 6:46 PM MDT
Civil Twilight 6:33 AM MDT 7:13 PM MDT
Nautical Twilight 6:02 AM MDT 7:44 PM MDT
Astronomical Twilight 5:31 AM MDT 8:15 PM MDT
Moon 2:02 PM MDT (10/1) No Moon Set
Length of Visible Light 12h 39m
Length of Day
11h 46m
Tomorrow will be 2m 33s shorter.
First Quarter, 52% of the Moon is Illuminated
Today
First Quarter
Oct 8
Full
Oct 15
Last Quarter
Oct 23
New
Oct 30
First Quarter

Today's Extremes

State Highs State Lows

Community

WunderPhotos

Upload Photos

1,758,094 photos uploaded!

WunderBlogs® & News

Nearby

Snow Depth

Station Depth Elevation
Mineral Creek 0 in 10040 ft
Independence Pass 188 in 10600 ft
Apishapa 1 in 10000 ft
Roach 4 in 9700 ft
Schofield Pass 4 in 10700 ft

Earthquake Activity

City Distance Mag. Time & Date
No recent earthquake activity has been reported nearby.
Minimum magnitude displayed is 2.5.

Coastal Water Temperatures

Place Temperature
No Stations Reporting

Nearby Weather Stations